Time;durP1;ratioP1;P1;durP2;ratioP2;P2;SDS_P1;SDS_P2;PMS_P1;PMS_P2;Temp;Humidity;BMP_temperature;BMP_pressure;BME280_temperature;BME280_humidity;BME280_pressure;Samples;Min_cycle;Max_cycle;Signal;HPM_P1;HPM_P2
2024/02/18 00:00:07;;;;;;;0.10;0.10;;;;;;;12.26;72.43;103138.53;5090495;28;20475;-77
2024/02/18 00:02:34;;;;;;;0.10;0.10;;;;;;;12.25;72.23;103144.72;5090497;28;20407;-78
2024/02/18 00:05:02;;;;;;;0.10;0.10;;;;;;;12.32;72.05;103136.81;5085490;28;20025;-78
2024/02/18 00:07:28;;;;;;;1.00;1.00;;;;;;;12.28;72.14;103134.09;5091487;28;20024;-79
2024/02/18 00:09:55;;;;;;;0.47;0.47;;;;;;;12.26;72.22;103127.00;5092487;28;20017;-78
2024/02/18 00:12:24;;;;;;;0.20;0.20;;;;;;;12.27;72.53;103128.78;5086134;28;20038;-77
2024/02/18 00:14:51;;;;;;;0.10;0.10;;;;;;;12.19;72.60;103127.84;5084013;28;20700;-78
2024/02/18 00:17:18;;;;;;;0.10;0.10;;;;;;;12.26;72.32;103127.91;5071440;28;20056;-78
2024/02/18 00:19:44;;;;;;;0.20;0.20;;;;;;;12.28;72.47;103120.81;5082609;28;20036;-79
2024/02/18 00:22:10;;;;;;;0.55;0.43;;;;;;;12.26;72.89;103119.03;5088582;28;20059;-78
2024/02/18 00:24:36;;;;;;;0.20;0.20;;;;;;;12.22;72.82;103115.44;5096855;28;20035;-78
2024/02/18 00:27:03;;;;;;;0.10;0.10;;;;;;;12.35;72.91;103118.22;5096737;28;20024;-78
2024/02/18 00:29:29;;;;;;;0.28;0.28;;;;;;;12.35;72.31;103115.56;5076934;28;20032;-78
2024/02/18 00:31:56;;;;;;;0.10;0.10;;;;;;;12.36;72.63;103117.34;5087567;28;20083;-78
2024/02/18 00:34:22;;;;;;;0.15;0.15;;;;;;;12.36;72.69;103112.03;5085902;28;20031;-77
2024/02/18 00:36:48;;;;;;;0.20;0.20;;;;;;;12.38;72.59;103112.94;5089442;28;20028;-77
2024/02/18 00:39:15;;;;;;;0.20;0.20;;;;;;;12.43;72.82;103113.88;5091863;28;20494;-77
2024/02/18 00:41:42;;;;;;;0.38;0.38;;;;;;;12.43;72.28;103113.88;5096977;28;20031;-77
2024/02/18 00:44:09;;;;;;;0.20;0.20;;;;;;;12.40;72.65;103117.41;5097664;28;20615;-78
2024/02/18 00:46:35;;;;;;;0.22;0.22;;;;;;;12.49;72.25;103113.03;5096060;28;20020;-77
2024/02/18 00:49:01;;;;;;;0.10;0.10;;;;;;;12.59;72.41;103118.44;5097113;28;20047;-77
2024/02/18 00:51:28;;;;;;;0.30;0.30;;;;;;;12.59;72.16;103110.44;5089335;28;20051;-77
2024/02/18 00:53:54;;;;;;;0.10;0.10;;;;;;;12.57;72.47;103116.63;5092615;28;20080;-77
2024/02/18 00:56:20;;;;;;;0.20;0.20;;;;;;;12.65;72.28;103114.03;5097376;28;20024;-78
2024/02/18 00:58:48;;;;;;;0.20;0.20;;;;;;;12.61;71.94;103108.72;5098443;28;20039;-78
2024/02/18 01:01:15;;;;;;;0.10;0.10;;;;;;;12.65;72.04;103103.41;5089570;28;20016;-77
2024/02/18 01:03:41;;;;;;;0.20;0.20;;;;;;;12.66;72.11;103105.19;5091442;28;20012;-77
2024/02/18 01:06:07;;;;;;;0.35;0.35;;;;;;;12.68;72.36;103106.97;5096669;28;20036;-77
2024/02/18 01:08:33;;;;;;;0.20;0.20;;;;;;;12.75;72.26;103094.63;5098243;28;20024;-78
2024/02/18 01:11:00;;;;;;;0.25;0.25;;;;;;;12.79;71.81;103093.75;5100299;28;20028;-77
2024/02/18 01:13:26;;;;;;;0.20;0.20;;;;;;;12.78;71.90;103091.97;5099089;28;20032;-77
2024/02/18 01:15:52;;;;;;;0.10;0.10;;;;;;;12.75;72.25;103097.28;5093661;28;20394;-77
2024/02/18 01:18:18;;;;;;;0.10;0.10;;;;;;;12.81;71.88;103086.69;5099235;28;20032;-77
2024/02/18 01:20:45;;;;;;;1.75;0.73;;;;;;;12.84;72.21;103084.03;5094177;28;20634;-78
2024/02/18 01:23:11;;;;;;;0.10;0.10;;;;;;;12.87;71.83;103081.41;5095690;28;20081;-78
2024/02/18 01:25:38;;;;;;;0.10;0.10;;;;;;;12.81;71.97;103078.72;5100376;28;20020;-78
2024/02/18 01:28:04;;;;;;;0.28;0.28;;;;;;;12.89;72.14;103082.28;5096631;28;20069;-78
2024/02/18 01:30:31;;;;;;;6.40;3.45;;;;;;;12.92;71.66;103071.69;5097232;28;20032;-78
2024/02/18 01:32:57;;;;;;;0.40;0.40;;;;;;;12.84;71.60;103078.72;5097367;28;20555;-77
2024/02/18 01:35:23;;;;;;;0.10;0.10;;;;;;;12.95;71.65;103078.78;5098860;28;20024;-77
2024/02/18 01:37:49;;;;;;;0.10;0.10;;;;;;;12.98;71.69;103069.94;5102565;28;20044;-77
2024/02/18 01:40:16;;;;;;;0.10;0.10;;;;;;;12.88;71.09;103064.53;5093930;28;20043;-77
2024/02/18 01:42:43;;;;;;;0.25;0.25;;;;;;;13.05;71.29;103063.78;5098930;28;20031;-78
2024/02/18 01:45:11;;;;;;;0.20;0.20;;;;;;;13.13;70.64;103059.34;5092557;28;20070;-77
2024/02/18 01:47:42;;;;;;;0.10;0.10;;;;;;;13.18;70.74;103054.06;5097288;28;20513;-77
2024/02/18 01:50:10;;;;;;;0.15;0.15;;;;;;;13.12;70.71;103052.25;5098213;28;20028;-77
2024/02/18 01:52:39;;;;;;;0.20;0.20;;;;;;;13.10;70.30;103048.72;5098036;28;20024;-77
2024/02/18 01:55:06;;;;;;;0.38;0.38;;;;;;;13.10;70.43;103048.72;5094751;28;20028;-77
2024/02/18 01:57:33;;;;;;;0.10;0.10;;;;;;;13.19;70.17;103042.53;5102110;28;20104;-77
2024/02/18 02:00:03;;;;;;;0.10;0.10;;;;;;;13.16;69.81;103039.84;5098080;28;20024;-78
2024/02/18 02:02:29;;;;;;;0.10;0.10;;;;;;;13.17;69.89;103046.94;5101427;28;20028;-78
2024/02/18 02:04:56;;;;;;;0.10;0.10;;;;;;;13.26;69.57;103033.69;5096560;28;20036;-78
2024/02/18 02:07:23;;;;;;;0.10;0.10;;;;;;;13.27;69.35;103031.03;5100480;28;20441;-78
2024/02/18 02:09:50;;;;;;;0.10;0.10;;;;;;;13.23;69.44;103033.66;5095254;28;20039;-77
2024/02/18 02:12:16;;;;;;;0.10;0.10;;;;;;;13.24;69.21;103025.69;5096902;28;20028;-78
2024/02/18 02:14:43;;;;;;;0.13;0.13;;;;;;;13.33;68.97;103027.47;5096543;28;20129;-77
2024/02/18 02:17:14;;;;;;;0.10;0.10;;;;;;;13.29;69.11;103022.16;5102210;28;20052;-78
2024/02/18 02:19:40;;;;;;;0.63;0.63;;;;;;;13.38;68.85;103022.22;5103699;28;20421;-77
2024/02/18 02:22:06;;;;;;;0.13;0.13;;;;;;;13.39;69.07;103019.56;5096558;28;20065;-78
2024/02/18 02:24:33;;;;;;;0.10;0.10;;;;;;;13.34;69.21;103025.72;5101544;28;20026;-78
2024/02/18 02:27:00;;;;;;;0.20;0.20;;;;;;;13.37;69.39;103024.00;5101114;28;20032;-79
2024/02/18 02:29:27;;;;;;;0.20;0.20;;;;;;;13.34;69.36;103018.63;5102983;28;20020;-78
2024/02/18 02:31:53;;;;;;;0.10;0.10;;;;;;;13.32;69.73;103006.19;5101581;28;20076;-78
2024/02/18 02:34:22;;;;;;;0.30;0.30;;;;;;;13.20;70.10;103002.59;5097048;28;20081;-78
2024/02/18 02:36:48;;;;;;;0.10;0.10;;;;;;;13.19;70.46;103005.28;5091621;28;20028;-78
2024/02/18 02:39:14;;;;;;;0.17;0.17;;;;;;;13.11;70.81;103002.59;5093592;28;20384;-78
2024/02/18 02:41:41;;;;;;;0.10;0.10;;;;;;;13.07;70.85;103001.69;5095665;28;20028;-78
2024/02/18 02:44:08;;;;;;;0.20;0.20;;;;;;;13.00;71.31;102999.00;5094094;28;20023;-79
2024/02/18 02:46:34;;;;;;;0.10;0.10;;;;;;;13.07;71.05;103000.78;5086815;28;20031;-78
2024/02/18 02:49:00;;;;;;;0.10;0.10;;;;;;;12.92;71.77;102988.28;5093113;28;20030;-77
2024/02/18 02:51:26;;;;;;;0.13;0.13;;;;;;;12.71;71.63;102986.41;5088917;28;20032;-77
2024/02/18 02:53:53;;;;;;;0.15;0.15;;;;;;;12.84;71.69;102977.63;5083766;28;20107;-77
2024/02/18 02:56:19;;;;;;;0.82;0.82;;;;;;;12.86;71.70;102981.19;5089396;28;20069;-77
2024/02/18 02:58:45;;;;;;;0.10;0.10;;;;;;;12.89;71.80;102969.66;5078728;28;20059;-77
2024/02/18 03:01:12;;;;;;;0.10;0.10;;;;;;;12.79;71.96;102971.38;5076588;28;20040;-77
2024/02/18 03:03:39;;;;;;;0.10;0.10;;;;;;;12.79;72.38;102974.94;5076408;28;20059;-77
2024/02/18 03:06:06;;;;;;;0.20;0.20;;;;;;;12.74;72.49;102965.16;5083457;28;20051;-77
2024/02/18 03:08:32;;;;;;;2.25;1.85;;;;;;;12.71;72.83;102955.41;5081467;28;20376;-77
2024/02/18 03:10:59;;;;;;;0.10;0.10;;;;;;;12.77;72.26;102954.53;5093670;28;20511;-78
2024/02/18 03:13:25;;;;;;;0.10;0.10;;;;;;;12.70;72.70;102950.09;5096494;28;20077;-77
2024/02/18 03:15:51;;;;;;;0.10;0.10;;;;;;;12.73;72.45;102942.97;5090733;28;20479;-77
2024/02/18 03:18:17;;;;;;;0.10;0.10;;;;;;;12.75;72.34;102940.34;5092342;28;20032;-77
2024/02/18 03:20:43;;;;;;;0.10;0.10;;;;;;;12.70;72.54;102934.13;5088964;28;20487;-77
2024/02/18 03:23:10;;;;;;;0.10;0.10;;;;;;;12.70;72.58;102931.47;5071089;28;20123;-77
2024/02/18 03:25:38;;;;;;;0.10;0.10;;;;;;;12.65;72.72;102926.13;5089112;28;20029;-77
2024/02/18 03:28:05;;;;;;;0.55;0.55;;;;;;;12.69;72.33;102924.38;5088620;28;20055;-77
2024/02/18 03:30:31;;;;;;;0.90;0.73;;;;;;;12.58;72.75;102921.63;5090113;28;20021;-77
2024/02/18 03:32:57;;;;;;;0.10;0.10;;;;;;;12.48;73.16;102912.72;5084070;28;20028;-77
2024/02/18 03:35:27;;;;;;;0.10;0.10;;;;;;;12.59;72.52;102913.66;5086370;28;20027;-77
2024/02/18 03:37:56;;;;;;;0.80;0.80;;;;;;;12.46;72.98;102906.50;5090667;28;20465;-77
2024/02/18 03:40:23;;;;;;;0.20;0.20;;;;;;;12.47;73.19;102894.97;5088998;28;20032;-77
2024/02/18 03:42:50;;;;;;;0.20;0.20;;;;;;;12.40;73.38;102895.81;5083755;28;20129;-77
2024/02/18 03:45:16;;;;;;;0.43;0.43;;;;;;;12.47;72.55;102889.66;5087703;28;20032;-77
2024/02/18 03:47:44;;;;;;;0.10;0.10;;;;;;;12.44;72.90;102882.56;5078910;28;20036;-77
2024/02/18 03:50:14;;;;;;;0.10;0.10;;;;;;;12.40;72.83;102878.13;5089706;28;20028;-77
2024/02/18 03:52:42;;;;;;;0.10;0.10;;;;;;;12.37;72.32;102871.91;5084561;28;20115;-77
2024/02/18 03:55:11;;;;;;;0.10;0.10;;;;;;;12.49;72.72;102866.66;5090707;28;20021;-77
2024/02/18 03:57:38;;;;;;;0.20;0.20;;;;;;;12.39;72.26;102859.53;5097519;28;20028;-77
2024/02/18 04:00:06;;;;;;;0.10;0.10;;;;;;;12.32;72.93;102855.03;5098564;28;20028;-77
2024/02/18 04:02:35;;;;;;;0.10;0.10;;;;;;;12.40;72.34;102845.31;5102149;28;20028;-78
2024/02/18 04:05:03;;;;;;;0.10;0.10;;;;;;;12.38;72.15;102849.75;5098329;28;20028;-77
2024/02/18 04:07:29;;;;;;;0.10;0.10;;;;;;;12.39;72.30;102846.22;5099431;28;20020;-78
2024/02/18 04:09:56;;;;;;;1.10;1.00;;;;;;;12.34;72.22;102832.91;5098611;28;20036;-78
2024/02/18 04:12:22;;;;;;;0.10;0.10;;;;;;;12.33;72.42;102835.56;5088868;28;20658;-78
2024/02/18 04:14:49;;;;;;;0.10;0.10;;;;;;;12.34;71.91;102827.59;5092819;28;20035;-78
2024/02/18 04:17:16;;;;;;;0.10;0.10;;;;;;;12.39;72.26;102824.97;5094426;28;20111;-79
2024/02/18 04:19:42;;;;;;;0.20;0.20;;;;;;;12.32;71.98;102807.19;5093852;28;20035;-78
2024/02/18 04:22:08;;;;;;;0.45;0.45;;;;;;;12.39;72.24;102811.66;5095834;28;20490;-78
2024/02/18 04:24:34;;;;;;;0.10;0.10;;;;;;;12.36;72.47;102793.94;5095644;28;20031;-78
2024/02/18 04:27:01;;;;;;;0.10;0.10;;;;;;;12.36;71.93;102803.66;5092587;28;20032;-78
2024/02/18 04:29:27;;;;;;;0.30;0.30;;;;;;;12.35;72.30;102800.13;5093862;28;20495;-78
2024/02/18 04:31:53;;;;;;;0.10;0.10;;;;;;;12.25;72.22;102796.53;5091108;28;20040;-78
2024/02/18 04:34:19;;;;;;;0.10;0.10;;;;;;;12.27;72.34;102794.78;5098461;28;20024;-78
2024/02/18 04:36:47;;;;;;;0.28;0.28;;;;;;;12.23;72.37;102792.09;5100766;28;20055;-78
2024/02/18 04:39:14;;;;;;;0.35;0.35;;;;;;;12.22;72.33;102793.84;5101270;28;20046;-78
2024/02/18 04:41:40;;;;;;;0.15;0.15;;;;;;;12.14;72.37;102782.31;5096988;28;20032;-78
2024/02/18 04:44:06;;;;;;;0.10;0.10;;;;;;;12.25;72.02;102769.06;5096741;28;20020;-77
2024/02/18 04:46:33;;;;;;;0.20;0.20;;;;;;;12.23;72.17;102770.84;5098535;28;20390;-78
2024/02/18 04:48:59;;;;;;;0.10;0.10;;;;;;;12.21;72.07;102760.22;5093400;28;20032;-77
2024/02/18 04:51:25;;;;;;;0.20;0.20;;;;;;;12.23;72.64;102761.09;5093357;28;20508;-77
2024/02/18 04:53:52;;;;;;;0.10;0.10;;;;;;;12.16;72.25;102763.72;5097752;28;20036;-78
2024/02/18 04:56:18;;;;;;;0.10;0.10;;;;;;;12.12;72.74;102747.78;5098519;28;20081;-78
2024/02/18 04:58:44;;;;;;;1.40;1.33;;;;;;;12.17;72.09;102750.44;5092005;28;20078;-77
2024/02/18 05:01:10;;;;;;;0.10;0.10;;;;;;;12.17;72.31;102750.44;5089508;28;20051;-77
2024/02/18 05:03:37;;;;;;;0.20;0.20;;;;;;;12.15;72.53;102752.22;5092609;28;20058;-77
2024/02/18 05:06:07;;;;;;;0.10;0.10;;;;;;;12.13;72.50;102748.66;5089963;28;20036;-77
2024/02/18 05:08:34;;;;;;;0.30;0.30;;;;;;;12.03;72.62;102738.88;5086164;28;20025;-77
2024/02/18 05:11:00;;;;;;;0.10;0.10;;;;;;;12.09;72.62;102739.78;5093928;28;20025;-77
2024/02/18 05:13:27;;;;;;;0.10;0.10;;;;;;;12.00;72.35;102736.19;5086786;28;20031;-77
2024/02/18 05:15:53;;;;;;;0.20;0.20;;;;;;;12.05;72.60;102739.75;5084960;28;20521;-77
2024/02/18 05:18:20;;;;;;;0.10;0.10;;;;;;;12.08;72.47;102735.34;5094838;28;20085;-76
2024/02/18 05:20:46;;;;;;;0.10;0.10;;;;;;;12.09;72.80;102742.44;5091030;28;20028;-77
2024/02/18 05:23:12;;;;;;;0.10;0.10;;;;;;;12.01;72.88;102730.00;5091182;28;20043;-78
2024/02/18 05:25:39;;;;;;;0.10;0.10;;;;;;;11.95;72.65;102734.38;5096721;28;20031;-77
2024/02/18 05:28:07;;;;;;;0.20;0.20;;;;;;;11.94;72.85;102737.91;5093519;28;20032;-77
2024/02/18 05:30:34;;;;;;;0.30;0.30;;;;;;;11.94;72.68;102729.94;5095275;28;20028;-78
2024/02/18 05:33:01;;;;;;;0.10;0.10;;;;;;;11.95;73.13;102730.81;5091956;28;20046;-77
2024/02/18 05:35:28;;;;;;;0.10;0.10;;;;;;;12.03;72.40;102722.94;5094547;28;20055;-77
2024/02/18 05:37:54;;;;;;;0.20;0.20;;;;;;;11.97;73.23;102715.81;5091604;28;20024;-77
2024/02/18 05:40:20;;;;;;;0.20;0.20;;;;;;;11.92;72.84;102717.53;5091344;28;20030;-77
2024/02/18 05:42:47;;;;;;;0.10;0.10;;;;;;;11.88;73.46;102713.09;5093532;28;20063;-78
2024/02/18 05:45:20;;;;;;;0.10;0.10;;;;;;;11.85;74.12;102706.00;5093755;28;20027;-78
2024/02/18 05:47:46;;;;;;;0.10;0.10;;;;;;;11.88;73.92;102706.00;5088763;28;20073;-77
2024/02/18 05:50:12;;;;;;;0.10;0.10;;;;;;;11.83;74.05;102697.13;5093417;28;20036;-78
2024/02/18 05:52:39;;;;;;;0.15;0.15;;;;;;;11.75;73.87;102694.44;5093333;28;20086;-78
2024/02/18 05:55:05;;;;;;;0.10;0.10;;;;;;;11.75;74.53;102691.78;5084942;28;20033;-77
2024/02/18 05:57:32;;;;;;;0.10;0.10;;;;;;;11.84;74.06;102684.72;5095259;28;20047;-77
2024/02/18 05:59:58;;;;;;;0.20;0.20;;;;;;;11.74;74.36;102681.13;5091661;28;20084;-77
2024/02/18 06:02:24;;;;;;;0.20;0.20;;;;;;;11.81;74.23;102689.16;5093638;28;20028;-77
2024/02/18 06:04:51;;;;;;;0.32;0.32;;;;;;;11.81;74.31;102677.63;5090901;28;20035;-77
2024/02/18 06:07:17;;;;;;;0.10;0.10;;;;;;;11.78;74.00;102673.19;5090868;28;20024;-77
2024/02/18 06:09:45;;;;;;;0.30;0.30;;;;;;;11.72;74.75;102672.31;5088659;28;20036;-76
2024/02/18 06:12:11;;;;;;;0.22;0.22;;;;;;;11.66;74.31;102662.53;5094000;28;20056;-78
2024/02/18 06:14:37;;;;;;;0.10;0.10;;;;;;;11.61;74.87;102665.19;5092592;28;20115;-77
2024/02/18 06:17:04;;;;;;;0.52;0.52;;;;;;;11.69;74.68;102656.34;5088562;28;20032;-77
2024/02/18 06:19:30;;;;;;;0.10;0.10;;;;;;;11.67;74.92;102658.13;5093769;28;20110;-76
2024/02/18 06:21:56;;;;;;;0.20;0.20;;;;;;;11.62;74.67;102648.34;5097859;28;20038;-76
2024/02/18 06:24:27;;;;;;;0.10;0.10;;;;;;;11.64;75.00;102643.94;5095583;28;20031;-77
2024/02/18 06:26:54;;;;;;;0.20;0.20;;;;;;;11.64;74.31;102643.94;5097749;28;20038;-77
2024/02/18 06:29:20;;;;;;;0.20;0.20;;;;;;;11.63;74.45;102642.16;5096467;28;20036;-77
2024/02/18 06:31:47;;;;;;;0.13;0.13;;;;;;;11.64;74.93;102635.97;5094199;28;20043;-77
2024/02/18 06:34:13;;;;;;;0.10;0.10;;;;;;;11.50;74.99;102632.34;5088997;28;20043;-78
2024/02/18 06:36:41;;;;;;;0.28;0.28;;;;;;;11.58;74.35;102633.28;5095287;28;20075;-78
2024/02/18 06:39:08;;;;;;;2.90;1.13;;;;;;;11.51;74.38;102631.47;5094091;28;20055;-78
2024/02/18 06:41:34;;;;;;;0.40;0.40;;;;;;;11.62;74.51;102628.88;5094383;28;20024;-77
2024/02/18 06:44:00;;;;;;;0.10;0.10;;;;;;;11.60;74.34;102620.00;5092195;28;20149;-77
2024/02/18 06:46:26;;;;;;;0.10;0.10;;;;;;;11.64;74.62;102620.03;5092487;28;20023;-77
2024/02/18 06:48:53;;;;;;;0.15;0.15;;;;;;;11.58;75.01;102611.19;5091164;28;20035;-77
2024/02/18 06:51:19;;;;;;;5.63;1.23;;;;;;;11.64;74.72;102606.75;5091399;28;20095;-77
2024/02/18 06:53:45;;;;;;;0.20;0.20;;;;;;;11.45;74.54;102607.56;5091230;28;20092;-77
2024/02/18 06:56:11;;;;;;;0.20;0.20;;;;;;;11.56;74.88;102604.97;5089972;28;20032;-77
2024/02/18 06:58:37;;;;;;;0.52;0.52;;;;;;;11.45;74.76;102599.59;5087950;28;20154;-77
2024/02/18 07:01:04;;;;;;;0.20;0.20;;;;;;;11.62;74.54;102605.88;5089345;28;20495;-77
2024/02/18 07:03:30;;;;;;;6.60;2.15;;;;;;;11.54;74.50;102599.66;5087763;28;20669;-76
2024/02/18 07:05:58;;;;;;;0.20;0.20;;;;;;;11.55;74.75;102601.44;5087719;28;20475;-78
2024/02/18 07:08:24;;;;;;;0.20;0.20;;;;;;;11.60;74.20;102590.81;5081439;28;20056;-77
2024/02/18 07:10:50;;;;;;;0.30;0.30;;;;;;;11.52;74.63;102593.44;5092716;28;20024;-78
2024/02/18 07:13:17;;;;;;;0.10;0.10;;;;;;;11.48;74.81;102597.84;5085237;28;20070;-76
2024/02/18 07:15:43;;;;;;;0.68;0.63;;;;;;;11.58;74.49;102592.59;5077276;28;20036;-77
2024/02/18 07:18:09;;;;;;;0.10;0.10;;;;;;;11.52;74.40;102587.25;5086736;28;20460;-78
2024/02/18 07:20:35;;;;;;;0.20;0.20;;;;;;;11.61;74.49;102593.50;5083256;28;20035;-76
2024/02/18 07:23:01;;;;;;;0.13;0.13;;;;;;;11.49;74.86;102583.69;5082432;28;20511;-78
2024/02/18 07:25:28;;;;;;;0.35;0.35;;;;;;;11.56;74.83;102578.41;5081043;28;20094;-78
2024/02/18 07:27:54;;;;;;;0.20;0.20;;;;;;;11.54;74.57;102582.81;5089490;28;20115;-78
2024/02/18 07:30:20;;;;;;;0.20;0.20;;;;;;;11.60;74.70;102573.13;5084211;28;20120;-77
2024/02/18 07:32:46;;;;;;;0.32;0.32;;;;;;;11.58;74.16;102564.25;5082555;28;20048;-77
2024/02/18 07:35:12;;;;;;;0.10;0.10;;;;;;;11.39;75.11;102565.06;5080940;28;20035;-77
2024/02/18 07:37:39;;;;;;;0.10;0.10;;;;;;;11.45;75.29;102568.66;5081651;28;20035;-78
2024/02/18 07:40:05;;;;;;;0.20;0.20;;;;;;;11.49;75.39;102562.47;5086843;28;20023;-77
2024/02/18 07:42:32;;;;;;;0.20;0.20;;;;;;;11.51;74.97;102562.47;5088991;28;20043;-77
2024/02/18 07:44:58;;;;;;;0.10;0.10;;;;;;;11.42;75.13;102571.28;5085717;28;20039;-77
2024/02/18 07:47:24;;;;;;;0.20;0.20;;;;;;;11.49;75.18;102564.25;5087268;28;20084;-77
2024/02/18 07:49:50;;;;;;;0.50;0.50;;;;;;;11.41;75.05;102565.97;5089501;28;20487;-77
2024/02/18 07:52:16;;;;;;;0.10;0.10;;;;;;;11.42;75.38;102565.09;5091004;28;20123;-78
2024/02/18 07:54:45;;;;;;;2.03;0.63;;;;;;;11.37;74.99;102564.19;5088049;28;20024;-77
2024/02/18 07:57:12;;;;;;;0.38;0.38;;;;;;;11.52;74.47;102550.97;5081973;28;20036;-77
2024/02/18 07:59:38;;;;;;;0.28;0.28;;;;;;;11.39;75.54;102557.09;5091588;28;20050;-76
2024/02/18 08:02:04;;;;;;;0.30;0.30;;;;;;;11.38;75.72;102544.75;5080616;28;20052;-77
2024/02/18 08:04:30;;;;;;;0.10;0.10;;;;;;;11.45;75.17;102535.91;5081249;28;20061;-77
2024/02/18 08:06:56;;;;;;;0.10;0.10;;;;;;;11.49;74.68;102543.00;5092287;28;20043;-78
2024/02/18 08:09:23;;;;;;;0.32;0.32;;;;;;;11.45;75.52;102535.91;5086872;28;20016;-77
2024/02/18 08:11:49;;;;;;;0.10;0.10;;;;;;;11.50;74.69;102539.44;5084100;28;20137;-77
2024/02/18 08:14:15;;;;;;;0.17;0.17;;;;;;;11.46;75.25;102540.31;5077191;28;20029;-77
2024/02/18 08:16:41;;;;;;;0.38;0.38;;;;;;;11.48;74.93;102542.09;5090263;28;20032;-77
2024/02/18 08:19:07;;;;;;;0.10;0.10;;;;;;;11.37;74.86;102546.50;5089381;28;20028;-77
2024/02/18 08:21:34;;;;;;;0.10;0.10;;;;;;;11.48;74.87;102531.50;5084989;28;20028;-77
2024/02/18 08:24:00;;;;;;;0.17;0.17;;;;;;;11.54;74.67;102527.97;5078595;28;20032;-76
2024/02/18 08:26:29;;;;;;;0.35;0.35;;;;;;;11.53;74.68;102536.81;5090411;28;20024;-77
2024/02/18 08:28:56;;;;;;;0.15;0.15;;;;;;;11.59;75.00;102533.28;5084051;28;20086;-77
2024/02/18 08:31:22;;;;;;;0.45;0.45;;;;;;;11.53;74.52;102533.28;5087942;28;20028;-77
2024/02/18 08:33:49;;;;;;;0.20;0.20;;;;;;;11.54;74.68;102538.59;5091218;28;20540;-78
2024/02/18 08:36:15;;;;;;;0.30;0.30;;;;;;;11.42;75.27;102530.59;5085940;28;20494;-77
2024/02/18 08:38:42;;;;;;;0.10;0.10;;;;;;;11.48;75.42;102525.31;5094745;28;20032;-78
2024/02/18 08:41:09;;;;;;;0.10;0.10;;;;;;;11.49;75.40;102516.47;5095429;28;20446;-78
2024/02/18 08:43:43;;;;;;;0.20;0.20;;;;;;;11.57;74.64;102514.69;5083132;28;20112;-77
2024/02/18 08:46:10;;;;;;;0.10;0.10;;;;;;;11.52;75.07;102511.16;5084844;28;20063;-77
2024/02/18 08:48:38;;;;;;;0.10;0.10;;;;;;;11.55;74.79;102505.88;5090742;28;20028;-77
2024/02/18 08:51:06;;;;;;;0.20;0.20;;;;;;;11.57;74.74;102505.88;5086810;28;20047;-76
2024/02/18 08:53:32;;;;;;;0.20;0.20;;;;;;;11.62;74.52;102510.28;5083238;28;20028;-77
2024/02/18 08:55:58;;;;;;;0.10;0.10;;;;;;;11.60;74.87;102497.91;5090399;28;20054;-76
2024/02/18 08:58:24;;;;;;;0.10;0.10;;;;;;;11.57;74.88;102490.81;5084131;28;20098;-78
2024/02/18 09:00:51;;;;;;;0.20;0.20;;;;;;;11.59;74.92;102491.72;5092038;28;20031;-78
2024/02/18 09:03:17;;;;;;;0.10;0.10;;;;;;;11.56;75.07;102491.69;5090653;28;20039;-78
2024/02/18 09:05:43;;;;;;;0.10;0.10;;;;;;;11.59;74.56;102488.16;5090880;28;20023;-77
2024/02/18 09:08:09;;;;;;;0.30;0.30;;;;;;;11.54;74.85;102477.53;5092737;28;20039;-77
2024/02/18 09:10:36;;;;;;;0.10;0.10;;;;;;;11.68;74.40;102474.03;5094151;28;20103;-78
2024/02/18 09:13:03;;;;;;;0.20;0.20;;;;;;;11.67;74.44;102466.94;5095682;28;20115;-77
2024/02/18 09:15:30;;;;;;;0.10;0.10;;;;;;;11.59;74.23;102462.50;5094374;28;20028;-78
2024/02/18 09:17:56;;;;;;;2.47;2.38;;;;;;;11.70;74.74;102456.31;5094709;28;20031;-77
2024/02/18 09:20:23;;;;;;;1.17;1.17;;;;;;;11.75;74.85;102457.19;5096676;28;20028;-79
2024/02/18 09:22:50;;;;;;;16.10;1.85;;;;;;;11.58;74.33;102455.41;5095932;28;20028;-80
2024/02/18 09:25:16;;;;;;;0.30;0.30;;;;;;;11.72;74.38;102449.25;5092473;28;20040;-77
2024/02/18 09:27:42;;;;;;;0.10;0.10;;;;;;;11.73;74.19;102451.03;5079141;28;20059;-78
2024/02/18 09:30:09;;;;;;;0.40;0.40;;;;;;;11.67;74.49;102441.28;5079430;28;20071;-76
2024/02/18 09:32:35;;;;;;;0.10;0.10;;;;;;;11.62;74.41;102443.03;5091769;28;20024;-76
2024/02/18 09:35:01;;;;;;;0.10;0.10;;;;;;;11.68;74.38;102431.56;5092815;28;20032;-77
2024/02/18 09:37:27;;;;;;;0.43;0.22;;;;;;;11.62;74.42;102435.94;5092130;28;20027;-77
2024/02/18 09:39:53;;;;;;;0.35;0.35;;;;;;;11.57;74.72;102440.38;5087342;28;20024;-77
2024/02/18 09:42:20;;;;;;;0.10;0.10;;;;;;;11.63;74.86;102429.75;5078829;28;20032;-78
2024/02/18 09:44:47;;;;;;;0.10;0.10;;;;;;;11.60;74.80;102418.25;5082847;28;20028;-77
2024/02/18 09:47:15;;;;;;;0.20;0.20;;;;;;;11.67;74.85;102422.69;5091432;28;20020;-77
2024/02/18 09:49:42;;;;;;;1.00;1.00;;;;;;;11.59;75.23;102416.47;5102783;28;20028;-77
2024/02/18 09:52:11;;;;;;;2.75;1.10;;;;;;;11.55;75.09;102412.97;5109019;28;20030;-78
2024/02/18 09:54:37;;;;;;;0.10;0.10;;;;;;;11.61;74.75;102405.00;5099593;28;20059;-78
2024/02/18 09:57:05;;;;;;;3.53;0.73;;;;;;;11.57;75.52;102403.22;5097898;28;20028;-78
2024/02/18 09:59:31;;;;;;;0.50;0.50;;;;;;;11.47;75.46;102393.47;5100049;28;20152;-79
2024/02/18 10:01:59;;;;;;;0.10;0.10;;;;;;;11.62;75.25;102385.50;5105199;28;20016;-78
2024/02/18 10:04:25;;;;;;;0.10;0.10;;;;;;;11.63;75.04;102389.06;5096627;28;20027;-79
2024/02/18 10:06:54;;;;;;;0.30;0.30;;;;;;;11.60;75.35;102376.69;5105138;28;20028;-78
2024/02/18 10:09:23;;;;;;;0.20;0.20;;;;;;;11.64;75.12;102377.56;5095955;28;20028;-78
2024/02/18 10:11:51;;;;;;;0.17;0.17;;;;;;;11.49;75.66;102376.66;5100647;28;20583;-78
2024/02/18 10:14:22;;;;;;;0.10;0.10;;;;;;;11.63;75.27;102371.34;5099990;28;20076;-78
2024/02/18 10:16:49;;;;;;;0.10;0.10;;;;;;;11.45;75.96;102372.25;5099874;28;20028;-78
2024/02/18 10:19:15;;;;;;;0.10;0.10;;;;;;;11.58;75.43;102373.13;5096085;28;20024;-78
2024/02/18 10:21:42;;;;;;;0.95;0.95;;;;;;;11.52;75.66;102370.47;5100204;28;20464;-78
2024/02/18 10:24:09;;;;;;;0.20;0.20;;;;;;;11.41;76.21;102377.53;5093109;28;20020;-78
2024/02/18 10:26:35;;;;;;;0.10;0.10;;;;;;;11.53;76.14;102374.03;5103325;28;20102;-80
2024/02/18 10:29:03;;;;;;;0.10;0.10;;;;;;;11.52;76.40;102372.25;5095909;28;20421;-77
2024/02/18 10:31:29;;;;;;;0.20;0.20;;;;;;;11.45;76.43;102371.34;5091037;28;20088;-77
2024/02/18 10:33:55;;;;;;;0.10;0.10;;;;;;;11.51;76.35;102366.03;5091465;28;20028;-78
2024/02/18 10:36:25;;;;;;;4.38;0.80;;;;;;;11.47;76.45;102354.53;5097670;28;20027;-78
2024/02/18 10:38:57;;;;;;;0.10;0.10;;;;;;;11.49;77.06;102346.59;5095380;28;20027;-78
2024/02/18 10:41:34;;;;;;;0.10;0.10;;;;;;;11.60;76.79;102339.50;5091384;28;20023;-78
2024/02/18 10:44:04;;;;;;;0.17;0.17;;;;;;;11.57;76.84;102334.19;5091874;28;20039;-78
2024/02/18 10:46:33;;;;;;;0.10;0.10;;;;;;;11.57;77.44;102328.88;5094549;28;20024;-77
2024/02/18 10:49:10;;;;;;;0.20;0.20;;;;;;;11.50;77.73;102329.75;5096498;28;20107;-78
2024/02/18 10:51:39;;;;;;;0.47;0.47;;;;;;;11.44;77.25;102319.13;5091061;28;20057;-78
2024/02/18 10:54:40;;;;;;;0.20;0.20;;;;;;;11.58;77.14;102309.41;5098682;28;20032;-78
2024/02/18 10:57:07;;;;;;;0.10;0.10;;;;;;;11.43;77.71;102304.13;5096909;28;20032;-78
2024/02/18 10:59:47;;;;;;;0.30;0.30;;;;;;;11.55;77.04;102290.84;5096052;28;20028;-78
2024/02/18 11:02:19;;;;;;;0.20;0.20;;;;;;;11.56;76.92;102289.06;5091354;28;20049;-77
2024/02/18 11:04:47;;;;;;;0.20;0.20;;;;;;;11.52;77.21;102284.66;5090796;28;20028;-77
2024/02/18 11:07:15;;;;;;;0.10;0.10;;;;;;;11.44;77.24;102274.03;5092404;28;20466;-77
2024/02/18 11:09:43;;;;;;;1.02;1.00;;;;;;;11.47;77.09;102271.38;5091945;28;20391;-77
2024/02/18 11:12:10;;;;;;;0.10;0.10;;;;;;;11.48;77.80;102260.75;5091115;28;20028;-77
2024/02/18 11:14:38;;;;;;;1.23;1.20;;;;;;;11.43;77.72;102261.66;5090418;28;20590;-77
2024/02/18 11:17:06;;;;;;;0.40;0.40;;;;;;;11.45;77.54;102249.25;5090218;28;20059;-77
2024/02/18 11:19:33;;;;;;;0.10;0.10;;;;;;;11.53;77.15;102242.19;5091435;28;20026;-77
2024/02/18 11:22:00;;;;;;;0.13;0.13;;;;;;;11.43;77.64;102230.69;5091712;28;20487;-77